BACAU current weather conditions

sailwx.info

Wind from 240 at 13 knots

Air temperature 10.0° C
Visibility: greater than 5.4 NM
Dewpoint -8.0° C

Last reported at 2020-Jan-22 11:30 UTC.
Time now 2020-Jan-22 13:25 UTC

Location: N 46°31' E 026°55'.
View on Google Maps.

See reports from other nearby stations

  
Tides and Currents Weather Stations Pressure Air Temp Water Temp Dewpoint Dewpoint Depression Visibility Wind Speed Wind Dir Waves Ship Positions
date/time (UTC)wind fromknots sea level pressurealtimeterstation pressurevisibilityair tempwater tempwave heightnotes
2020-Jan-22 13:00 260 15 5.411.0
2020-Jan-22 12:30 250 11 5.412.0
2020-Jan-22 12:00 240 15 5.411.0
2020-Jan-22 11:30 240 13 5.410.0
2020-Jan-22 11:00 220 12 5.410.0
2020-Jan-22 10:30 190 9 5.410.0
2020-Jan-22 10:00 200 12 5.411.0
2020-Jan-22 09:30 5.411.0
2020-Jan-22 09:00 5.410.0
2020-Jan-22 08:30 170 6 5.4 8.0
2020-Jan-22 08:00 100 4 5.4 4.0
2020-Jan-22 07:30 080 4 5.4 2.0
2020-Jan-22 07:00 5.4-0.0
2020-Jan-22 06:30 070 5 5.4-1.0
2020-Jan-22 06:00 060 6 5.4-1.0
2020-Jan-22 05:30 080 5 5.4-2.0
2020-Jan-22 05:00 070 5 5.4-2.0
2020-Jan-22 04:30 050 5 5.4-0.0
2020-Jan-22 04:00 060 6 5.4-0.0
2020-Jan-22 03:30 070 5 5.4-0.0
2020-Jan-22 03:00 070 5 5.4-0.0
2020-Jan-22 02:30 060 5 5.4-0.0
2020-Jan-22 02:00 050 5 5.4-0.0
2020-Jan-22 01:30 070 6 5.4-0.0
2020-Jan-22 01:00 070 4 5.4 1.0
2020-Jan-22 00:30 080 4 5.4-0.0
2020-Jan-22 00:00 080 5 5.4-0.0
2020-Jan-21 23:30 070 6 5.4-0.0
2020-Jan-21 23:00 130 1 5.4-1.0
2020-Jan-21 22:30 060 4 5.4 1.0
2020-Jan-21 22:00 060 5 5.4-0.0
2020-Jan-21 21:30 070 4 5.4-0.0
2020-Jan-21 21:00 070 5 5.4-0.0
2020-Jan-21 20:30 050 4 5.4-0.0
2020-Jan-21 20:00 070 5 5.4-0.0
2020-Jan-21 19:30 050 4 5.4-0.0
2020-Jan-21 19:00 080 5 5.4-0.0
2020-Jan-21 18:30 070 6 5.4 1.0
2020-Jan-21 18:00 060 6 5.4 1.0
2020-Jan-21 17:30 070 5 5.4 1.0
2020-Jan-21 17:00 030 5 5.4 3.0
2020-Jan-21 16:30 5.4 2.0
2020-Jan-21 16:00 090 4 5.4 3.0
2020-Jan-21 15:30 080 1 5.4 4.0
2020-Jan-21 15:00 010 1 5.4 4.0
2020-Jan-21 14:30 110 2 5.4 4.0
2020-Jan-21 14:00 120 4 5.4 5.0
2020-Jan-21 13:30 5.4 5.0
2020-Jan-21 13:00 120 2 5.4 5.0
2020-Jan-21 12:30 140 2 5.4 3.0
2020-Jan-21 12:00 5.4 4.0
2020-Jan-21 11:30 110 1 5.4 4.0
2020-Jan-21 11:00 5.4 3.0
2020-Jan-21 10:30 5.4 3.0
2020-Jan-21 10:00 130 1 5.4 2.0
2020-Jan-21 09:30 5.4 2.0
2020-Jan-21 09:00 120 1 5.4 1.0
2020-Jan-21 08:30 5.4 1.0
2020-Jan-21 08:00 030 4 5.4-1.0
2020-Jan-21 07:30 080 1 5.4-2.0
2020-Jan-21 07:00 080 2 5.4-2.0
2020-Jan-21 06:30 120 4 5.4-3.0
2020-Jan-21 06:00 330 2 5.4-3.0
2020-Jan-21 05:30 330 4 5.4-4.0
2020-Jan-21 05:00 290 5 5.4-3.0
2020-Jan-21 04:30 300 6 5.4-3.0
2020-Jan-21 04:00 300 6 5.4-3.0
2020-Jan-21 03:30 300 8 5.4-2.0
2020-Jan-21 03:00 330 6 5.4-3.0
2020-Jan-21 02:30 330 6 5.4-3.0
2020-Jan-21 02:00 340 6 5.4-2.0
2020-Jan-21 01:30 300 6 5.4-1.0
2020-Jan-21 01:00 290 8 5.4-1.0
2020-Jan-21 00:30 290 8 5.4-0.0
2020-Jan-21 00:00 300 8 5.4-1.0
2020-Jan-20 23:30 310 7 5.4-1.0
2020-Jan-20 23:00 300 7 5.4-1.0
2020-Jan-20 22:30 290 8 5.4-1.0
2020-Jan-20 22:00 300 7 5.4-1.0
2020-Jan-20 21:30 310 7 5.4-0.0
2020-Jan-20 21:00 310 7 5.4-0.0
2020-Jan-20 20:30 320 8 5.4 1.0
2020-Jan-20 20:00 330 8 5.4-0.0
2020-Jan-20 19:30 340 9 5.4-0.0
2020-Jan-20 19:00 350 11 5.4-0.0
2020-Jan-20 18:30 350 13 5.4-0.0
2020-Jan-20 18:00 340 20 5.4 1.0
2020-Jan-20 17:30 350 11 5.4 1.0
2020-Jan-20 17:00 340 11 5.4-0.0
2020-Jan-20 16:30 340 8 5.4-0.0
2020-Jan-20 16:00 340 11 5.4-0.0
2020-Jan-20 15:30 340 8 5.4-1.0
2020-Jan-20 15:00 340 8 5.4-1.0
2020-Jan-20 14:30 350 12 5.4-0.0
2020-Jan-20 14:00 350 13 5.4 1.0
2020-Jan-20 13:30 350 13 5.4 1.0
2020-Jan-20 13:00 350 14 5.4 1.0